createdAt,value
2024-03-22T00:00:18.211Z,1013.14
2024-03-22T00:01:18.195Z,1013.17
2024-03-22T00:02:18.189Z,1013.12
2024-03-22T00:03:18.392Z,1013.07
2024-03-22T00:04:18.155Z,1013.04
2024-03-22T00:05:18.174Z,1013.01
2024-03-22T00:06:18.143Z,1013.01
2024-03-22T00:07:18.116Z,1012.97
2024-03-22T00:08:18.093Z,1012.93
2024-03-22T00:09:18.130Z,1012.92
2024-03-22T00:10:18.106Z,1012.90
2024-03-22T00:11:18.099Z,1012.96
2024-03-22T00:12:18.069Z,1012.93
2024-03-22T00:13:18.058Z,1012.93
2024-03-22T00:14:18.042Z,1012.88
2024-03-22T00:15:18.096Z,1012.87
2024-03-22T00:16:18.024Z,1012.93
2024-03-22T00:17:18.034Z,1012.85
2024-03-22T00:18:18.009Z,1012.86
2024-03-22T00:19:18.023Z,1012.87
2024-03-22T00:20:17.976Z,1012.91
2024-03-22T00:21:18.012Z,1012.89
2024-03-22T00:22:17.971Z,1012.85
2024-03-22T00:23:17.949Z,1012.90
2024-03-22T00:24:17.941Z,1012.84
2024-03-22T00:25:17.930Z,1012.88
2024-03-22T00:26:17.919Z,1012.86
2024-03-22T00:27:17.953Z,1012.80
2024-03-22T00:28:17.916Z,1012.77
2024-03-22T00:29:17.940Z,1012.75
2024-03-22T00:30:17.904Z,1012.74
2024-03-22T00:31:17.875Z,1012.74
2024-03-22T00:32:17.849Z,1012.68
2024-03-22T00:33:17.872Z,1012.70
2024-03-22T00:34:17.825Z,1012.68
2024-03-22T00:35:17.827Z,1012.62
2024-03-22T00:36:17.817Z,1012.60
2024-03-22T00:37:17.818Z,1012.57
2024-03-22T00:38:17.797Z,1012.52
2024-03-22T00:39:17.906Z,1012.46
2024-03-22T00:40:17.758Z,1012.48
2024-03-22T00:41:18.706Z,1012.41
2024-03-22T00:42:17.741Z,1012.35
2024-03-22T00:43:17.744Z,1012.37
2024-03-22T00:44:17.732Z,1012.36
2024-03-22T00:45:18.721Z,1012.34
2024-03-22T00:46:17.702Z,1012.28
2024-03-22T00:47:17.736Z,1012.32
2024-03-22T00:48:17.680Z,1012.30
2024-03-22T00:49:17.684Z,1012.33
2024-03-22T00:50:17.662Z,1012.31
2024-03-22T00:51:17.682Z,1012.36
2024-03-22T00:52:17.663Z,1012.29
2024-03-22T00:53:18.616Z,1012.28
2024-03-22T00:54:17.630Z,1012.26
2024-03-22T00:55:18.601Z,1012.26
2024-03-22T00:56:17.616Z,1012.28
2024-03-22T00:57:17.642Z,1012.30
2024-03-22T00:58:17.611Z,1012.35
2024-03-22T00:59:17.636Z,1012.36
2024-03-22T01:00:17.609Z,1012.31
2024-03-22T01:01:18.506Z,1012.35
2024-03-22T01:02:17.532Z,1012.36
2024-03-22T01:03:17.596Z,1012.38
2024-03-22T01:04:17.525Z,1012.36
2024-03-22T01:05:17.517Z,1012.31
2024-03-22T01:06:18.494Z,1012.31
2024-03-22T01:07:17.480Z,1012.26
2024-03-22T01:08:17.466Z,1012.31
2024-03-22T01:09:17.477Z,1012.33
2024-03-22T01:10:17.450Z,1012.36
2024-03-22T01:11:17.433Z,1012.33
2024-03-22T01:12:17.455Z,1012.35
2024-03-22T01:13:17.437Z,1012.28
2024-03-22T01:14:17.411Z,1012.26
2024-03-22T01:15:17.426Z,1012.24
2024-03-22T01:16:17.413Z,1012.26
2024-03-22T01:17:17.407Z,1012.17
2024-03-22T01:18:17.381Z,1012.17
2024-03-22T01:19:17.372Z,1012.23
2024-03-22T01:20:17.370Z,1012.13
2024-03-22T01:21:17.411Z,1012.14
2024-03-22T01:22:17.314Z,1012.09
2024-03-22T01:23:17.321Z,1012.12
2024-03-22T01:24:17.307Z,1012.12
2024-03-22T01:25:17.288Z,1012.10
2024-03-22T01:26:17.289Z,1012.09
2024-03-22T01:27:18.287Z,1012.02
2024-03-22T01:28:17.250Z,1012.07
2024-03-22T01:29:17.265Z,1011.95
2024-03-22T01:30:17.234Z,1011.98
2024-03-22T01:31:17.237Z,1011.93
2024-03-22T01:32:17.224Z,1011.95
2024-03-22T01:33:17.240Z,1011.93
2024-03-22T01:34:17.199Z,1011.91
2024-03-22T01:35:17.193Z,1011.96
2024-03-22T01:36:17.167Z,1011.87
2024-03-22T01:37:18.111Z,1011.88
2024-03-22T01:38:17.156Z,1011.88
2024-03-22T01:39:17.225Z,1011.85
2024-03-22T01:40:17.142Z,1011.81
2024-03-22T01:41:17.126Z,1011.84
2024-03-22T01:42:17.107Z,1011.77
2024-03-22T01:43:17.099Z,1011.72
2024-03-22T01:44:17.103Z,1011.61
2024-03-22T01:45:17.098Z,1011.65
2024-03-22T01:46:17.067Z,1011.72
2024-03-22T01:47:17.073Z,1011.72
2024-03-22T01:48:17.018Z,1011.69
2024-03-22T01:49:17.055Z,1011.72
2024-03-22T01:50:17.985Z,1011.69
2024-03-22T01:51:17.077Z,1011.66
2024-03-22T01:52:17.033Z,1011.69
2024-03-22T01:53:17.007Z,1011.67
2024-03-22T01:54:16.979Z,1011.66
2024-03-22T01:55:16.952Z,1011.65
2024-03-22T01:56:16.945Z,1011.60
2024-03-22T01:57:16.975Z,1011.61
2024-03-22T01:58:16.942Z,1011.60
2024-03-22T01:59:16.915Z,1011.63
2024-03-22T02:00:16.905Z,1011.58
2024-03-22T02:01:16.924Z,1011.58
2024-03-22T02:02:16.886Z,1011.58
2024-03-22T02:03:17.102Z,1011.52
2024-03-22T02:04:16.877Z,1011.54
2024-03-22T02:05:16.860Z,1011.47
2024-03-22T02:06:16.851Z,1011.45
2024-03-22T02:07:16.837Z,1011.44
2024-03-22T02:08:16.822Z,1011.44
2024-03-22T02:09:16.912Z,1011.33
2024-03-22T02:10:16.817Z,1011.32
2024-03-22T02:11:16.800Z,1011.28
2024-03-22T02:12:16.784Z,1011.27
2024-03-22T02:13:16.774Z,1011.25
2024-03-22T02:14:16.772Z,1011.17
2024-03-22T02:15:17.755Z,1011.14
2024-03-22T02:16:16.740Z,1011.20
2024-03-22T02:17:16.747Z,1011.20
2024-03-22T02:18:16.726Z,1011.21
2024-03-22T02:19:16.716Z,1011.17
2024-03-22T02:20:16.705Z,1011.21
2024-03-22T02:21:16.757Z,1011.19
2024-03-22T02:22:16.684Z,1011.14
2024-03-22T02:23:16.662Z,1011.14
2024-03-22T02:24:16.672Z,1011.07
2024-03-22T02:25:16.666Z,1011.12
2024-03-22T02:26:16.620Z,1011.02
2024-03-22T02:27:16.675Z,1011.02
2024-03-22T02:28:16.631Z,1010.97
2024-03-22T02:29:17.310Z,1011.02
2024-03-22T02:30:16.620Z,1010.99
2024-03-22T02:31:16.622Z,1010.91
2024-03-22T02:32:16.582Z,1010.96
2024-03-22T02:33:16.625Z,1010.96
2024-03-22T02:34:16.574Z,1010.92
2024-03-22T02:35:16.551Z,1010.95
2024-03-22T02:36:16.530Z,1010.88
2024-03-22T02:37:16.515Z,1010.89
2024-03-22T02:38:16.549Z,1010.90
2024-03-22T02:39:16.701Z,1010.85
2024-03-22T02:40:16.493Z,1010.89
2024-03-22T02:41:16.491Z,1010.85
2024-03-22T02:42:16.469Z,1010.86
2024-03-22T02:43:16.474Z,1010.81
2024-03-22T02:44:16.447Z,1010.76
2024-03-22T02:45:16.529Z,1010.80
2024-03-22T02:46:16.422Z,1010.86
2024-03-22T02:47:16.453Z,1010.88
2024-03-22T02:48:16.434Z,1010.87
2024-03-22T02:49:16.437Z,1010.83
2024-03-22T02:50:16.384Z,1010.88
2024-03-22T02:51:16.420Z,1010.90
2024-03-22T02:52:16.442Z,1010.93
2024-03-22T02:53:16.392Z,1010.88
2024-03-22T02:54:16.353Z,1010.92
2024-03-22T02:55:16.357Z,1010.82
2024-03-22T02:56:16.328Z,1010.83
2024-03-22T02:57:16.531Z,1010.72
2024-03-22T02:58:16.294Z,1010.66
2024-03-22T02:59:16.291Z,1010.60
2024-03-22T03:00:16.315Z,1010.52
2024-03-22T03:01:16.249Z,1010.48
2024-03-22T03:02:16.365Z,1010.43
2024-03-22T03:03:16.603Z,1010.46
2024-03-22T03:04:16.369Z,1010.51
2024-03-22T03:05:16.272Z,1010.50
2024-03-22T03:06:16.313Z,1010.53
2024-03-22T03:07:16.243Z,1010.47
2024-03-22T03:08:16.837Z,1010.46
2024-03-22T03:09:16.506Z,1010.46
2024-03-22T03:10:16.201Z,1010.43
2024-03-22T03:11:16.170Z,1010.51
2024-03-22T03:12:16.195Z,1010.60
2024-03-22T03:13:16.182Z,1010.55
2024-03-22T03:14:16.148Z,1010.57
2024-03-22T03:15:16.205Z,1010.58
2024-03-22T03:16:16.094Z,1010.54
2024-03-22T03:17:16.082Z,1010.64
2024-03-22T03:18:16.070Z,1010.59
2024-03-22T03:19:16.084Z,1010.61
2024-03-22T03:20:16.081Z,1010.60
2024-03-22T03:21:16.069Z,1010.59
2024-03-22T03:22:16.033Z,1010.62
2024-03-22T03:23:16.022Z,1010.52
2024-03-22T03:24:16.009Z,1010.54
2024-03-22T03:25:16.033Z,1010.61
2024-03-22T03:26:16.010Z,1010.56
2024-03-22T03:27:16.008Z,1010.46
2024-03-22T03:28:15.997Z,1010.45
2024-03-22T03:29:15.981Z,1010.41
2024-03-22T03:30:15.970Z,1010.38
2024-03-22T03:31:15.955Z,1010.41
2024-03-22T03:32:15.954Z,1010.40
2024-03-22T03:33:15.974Z,1010.36
2024-03-22T03:34:15.904Z,1010.37
2024-03-22T03:35:15.893Z,1010.30
2024-03-22T03:36:15.901Z,1010.28
2024-03-22T03:37:15.899Z,1010.22
2024-03-22T03:38:15.857Z,1010.14
2024-03-22T03:39:15.984Z,1010.09
2024-03-22T03:40:15.856Z,1010.09
2024-03-22T03:41:16.018Z,1010.11
2024-03-22T03:42:15.833Z,1009.98
2024-03-22T03:43:15.795Z,1009.90
2024-03-22T03:44:16.754Z,1009.87
2024-03-22T03:45:15.809Z,1009.86
2024-03-22T03:46:15.805Z,1009.88
2024-03-22T03:47:15.755Z,1009.94
2024-03-22T03:48:15.782Z,1010.01
2024-03-22T03:49:15.734Z,1009.94
2024-03-22T03:50:15.758Z,1009.95
2024-03-22T03:51:15.798Z,1009.92
2024-03-22T03:52:15.704Z,1009.92
2024-03-22T03:53:16.667Z,1009.96
2024-03-22T03:54:15.692Z,1009.92
2024-03-22T03:55:15.674Z,1009.83
2024-03-22T03:56:15.678Z,1009.82
2024-03-22T03:57:15.883Z,1009.78
2024-03-22T03:58:15.643Z,1009.81
2024-03-22T03:59:23.202Z,1009.76
2024-03-22T04:00:15.666Z,1009.72
2024-03-22T04:01:15.615Z,1009.76
2024-03-22T04:02:15.713Z,1009.87
2024-03-22T04:03:15.707Z,1009.72
2024-03-22T04:04:15.592Z,1009.74
2024-03-22T04:05:15.594Z,1009.70
2024-03-22T04:06:15.583Z,1009.70
2024-03-22T04:07:15.553Z,1009.70
2024-03-22T04:08:15.561Z,1009.72
2024-03-22T04:09:15.569Z,1009.66
2024-03-22T04:10:15.539Z,1009.69
2024-03-22T04:11:15.553Z,1009.58
2024-03-22T04:12:15.500Z,1009.60
2024-03-22T04:13:15.486Z,1009.57
2024-03-22T04:14:15.499Z,1009.53
2024-03-22T04:15:15.557Z,1009.52
2024-03-22T04:16:15.491Z,1009.49
2024-03-22T04:17:16.413Z,1009.43
2024-03-22T04:18:15.450Z,1009.50
2024-03-22T04:19:15.436Z,1009.52
2024-03-22T04:20:15.414Z,1009.46
2024-03-22T04:21:15.493Z,1009.47
2024-03-22T04:22:15.443Z,1009.47
2024-03-22T04:23:15.447Z,1009.48
2024-03-22T04:24:15.409Z,1009.46
2024-03-22T04:25:15.373Z,1009.48
2024-03-22T04:26:15.359Z,1009.43
2024-03-22T04:27:15.394Z,1009.41
2024-03-22T04:28:15.370Z,1009.41
2024-03-22T04:29:15.331Z,1009.44
2024-03-22T04:30:15.309Z,1009.38
2024-03-22T04:31:15.323Z,1009.42
2024-03-22T04:32:15.298Z,1009.42
2024-03-22T04:33:15.352Z,1009.39
2024-03-22T04:34:15.280Z,1009.42
2024-03-22T04:35:15.261Z,1009.43
2024-03-22T04:36:15.265Z,1009.42
2024-03-22T04:37:15.236Z,1009.40
2024-03-22T04:38:15.250Z,1009.36
2024-03-22T04:39:15.264Z,1009.32
2024-03-22T04:40:15.227Z,1009.31
2024-03-22T04:41:15.188Z,1009.31
2024-03-22T04:42:15.188Z,1009.35
2024-03-22T04:43:15.208Z,1009.33
2024-03-22T04:44:15.153Z,1009.40
2024-03-22T04:45:16.182Z,1009.42
2024-03-22T04:46:15.147Z,1009.30
2024-03-22T04:47:15.131Z,1009.34
2024-03-22T04:48:15.165Z,1009.35
2024-03-22T04:49:15.099Z,1009.33
2024-03-22T04:50:15.102Z,1009.25
2024-03-22T04:51:15.133Z,1009.31
2024-03-22T04:52:15.119Z,1009.29
2024-03-22T04:53:15.074Z,1009.27
2024-03-22T04:54:15.065Z,1009.29
2024-03-22T04:55:15.054Z,1009.32
2024-03-22T04:56:15.046Z,1009.24
2024-03-22T04:57:15.067Z,1009.28
2024-03-22T04:58:15.056Z,1009.20
2024-03-22T04:59:17.592Z,1009.20
2024-03-22T05:00:15.051Z,1009.18
2024-03-22T05:01:14.980Z,1009.13
2024-03-22T05:02:14.970Z,1009.09
2024-03-22T05:03:14.981Z,1009.02
2024-03-22T05:04:14.936Z,1009.00
2024-03-22T05:05:14.972Z,1009.03
2024-03-22T05:06:14.898Z,1009.00
2024-03-22T05:07:14.954Z,1008.99
2024-03-22T05:08:14.971Z,1008.96
2024-03-22T05:09:14.974Z,1008.99
2024-03-22T05:10:14.894Z,1008.99
2024-03-22T05:11:14.876Z,1008.98
2024-03-22T05:12:14.877Z,1008.97
2024-03-22T05:13:15.966Z,1008.98
2024-03-22T05:14:14.859Z,1008.95
2024-03-22T05:15:14.842Z,1008.98
2024-03-22T05:16:14.826Z,1008.98
2024-03-22T05:17:14.809Z,1008.94
2024-03-22T05:18:14.792Z,1008.99
2024-03-22T05:19:14.805Z,1008.94
2024-03-22T05:20:15.731Z,1008.98
2024-03-22T05:21:14.750Z,1008.93
2024-03-22T05:22:14.808Z,1008.91
2024-03-22T05:23:14.751Z,1008.91
2024-03-22T05:24:14.729Z,1008.85
2024-03-22T05:25:14.717Z,1008.85
2024-03-22T05:26:14.715Z,1008.83
2024-03-22T05:27:14.700Z,1008.78
2024-03-22T05:28:14.674Z,1008.75
2024-03-22T05:29:14.696Z,1008.73
2024-03-22T05:30:14.685Z,1008.70
2024-03-22T05:31:14.642Z,1008.71
2024-03-22T05:32:14.634Z,1008.72
2024-03-22T05:33:14.621Z,1008.72
2024-03-22T05:34:14.610Z,1008.74
2024-03-22T05:35:14.609Z,1008.68
2024-03-22T05:36:14.618Z,1008.71
2024-03-22T05:37:14.590Z,1008.71
2024-03-22T05:38:14.598Z,1008.73
2024-03-22T05:39:14.566Z,1008.73
2024-03-22T05:40:14.540Z,1008.72
2024-03-22T05:41:14.541Z,1008.77
2024-03-22T05:42:14.529Z,1008.72
2024-03-22T05:43:14.531Z,1008.75
2024-03-22T05:44:14.504Z,1008.78
2024-03-22T05:45:14.501Z,1008.81
2024-03-22T05:46:14.514Z,1008.85
2024-03-22T05:47:26.770Z,1008.86
2024-03-22T05:48:15.502Z,1008.88
2024-03-22T05:49:14.469Z,1008.95
2024-03-22T05:50:14.457Z,1008.91
2024-03-22T05:51:14.442Z,1008.87
2024-03-22T05:52:14.431Z,1008.95
2024-03-22T05:53:14.454Z,1008.89
2024-03-22T05:54:14.416Z,1008.93
2024-03-22T05:55:14.388Z,1008.97
2024-03-22T05:56:14.386Z,1008.89
2024-03-22T05:57:14.366Z,1008.86
2024-03-22T05:58:14.374Z,1008.81
2024-03-22T05:59:14.398Z,1008.77
2024-03-22T06:00:14.358Z,1008.75
2024-03-22T06:01:14.367Z,1008.72
2024-03-22T06:02:14.323Z,1008.75
2024-03-22T06:03:14.314Z,1008.67
2024-03-22T06:04:14.309Z,1008.71
2024-03-22T06:05:15.248Z,1008.61
2024-03-22T06:06:14.276Z,1008.67
2024-03-22T06:07:14.257Z,1008.63
2024-03-22T06:08:21.390Z,1008.62
2024-03-22T06:09:14.236Z,1008.65
2024-03-22T06:10:14.267Z,1008.58
2024-03-22T06:11:16.420Z,1008.58
2024-03-22T06:12:14.202Z,1008.59
2024-03-22T06:13:14.194Z,1008.53
2024-03-22T06:14:14.182Z,1008.59
2024-03-22T06:15:14.184Z,1008.57
2024-03-22T06:16:14.165Z,1008.53
2024-03-22T06:17:14.164Z,1008.52
2024-03-22T06:18:14.148Z,1008.47
2024-03-22T06:19:14.120Z,1008.44
2024-03-22T06:20:14.141Z,1008.43
2024-03-22T06:21:14.107Z,1008.40
2024-03-22T06:22:14.503Z,1008.38
2024-03-22T06:23:14.084Z,1008.44
2024-03-22T06:24:14.205Z,1008.43
2024-03-22T06:25:14.065Z,1008.45
2024-03-22T06:26:14.058Z,1008.38
2024-03-22T06:27:14.147Z,1008.42
2024-03-22T06:28:14.046Z,1008.52
2024-03-22T06:29:14.045Z,1008.42
2024-03-22T06:30:14.262Z,1008.47
2024-03-22T06:31:13.996Z,1008.49
2024-03-22T06:32:14.058Z,1008.46
2024-03-22T06:33:13.970Z,1008.40
2024-03-22T06:34:13.966Z,1008.40
2024-03-22T06:35:13.956Z,1008.39
2024-03-22T06:36:13.958Z,1008.38
2024-03-22T06:37:13.934Z,1008.41
2024-03-22T06:38:13.924Z,1008.43
2024-03-22T06:39:13.914Z,1008.38
2024-03-22T06:40:13.907Z,1008.37
2024-03-22T06:41:13.876Z,1008.39
2024-03-22T06:42:15.293Z,1008.38
2024-03-22T06:43:13.881Z,1008.32
2024-03-22T06:44:13.864Z,1008.34
2024-03-22T06:45:13.901Z,1008.38
2024-03-22T06:46:13.850Z,1008.31
2024-03-22T06:47:13.845Z,1008.32
2024-03-22T06:48:13.815Z,1008.32
2024-03-22T06:49:13.804Z,1008.27
2024-03-22T06:50:13.792Z,1008.28
2024-03-22T06:51:13.792Z,1008.34
2024-03-22T06:52:13.788Z,1008.39
2024-03-22T06:53:13.763Z,1008.38
2024-03-22T06:54:13.792Z,1008.36
2024-03-22T06:55:13.759Z,1008.35
2024-03-22T06:56:13.762Z,1008.30
2024-03-22T06:57:13.754Z,1008.30
2024-03-22T06:58:13.714Z,1008.26
2024-03-22T06:59:13.704Z,1008.22
2024-03-22T07:00:13.763Z,1008.28
2024-03-22T07:01:15.264Z,1008.21
2024-03-22T07:02:13.694Z,1008.26
2024-03-22T07:03:13.661Z,1008.27
2024-03-22T07:04:14.330Z,1008.21
2024-03-22T07:05:13.646Z,1008.20
2024-03-22T07:06:13.630Z,1008.20
2024-03-22T07:07:14.604Z,1008.20
2024-03-22T07:08:13.598Z,1008.23
2024-03-22T07:09:13.608Z,1008.20
2024-03-22T07:10:13.592Z,1008.19
2024-03-22T07:11:13.624Z,1008.19
2024-03-22T07:12:13.545Z,1008.20
2024-03-22T07:13:13.581Z,1008.20
2024-03-22T07:14:13.558Z,1008.16
2024-03-22T07:15:13.540Z,1008.21
2024-03-22T07:16:13.534Z,1008.21
2024-03-22T07:17:13.517Z,1008.19
2024-03-22T07:18:13.511Z,1008.17
2024-03-22T07:19:13.547Z,1008.17
2024-03-22T07:20:13.491Z,1008.21
2024-03-22T07:21:13.464Z,1008.02
2024-03-22T07:22:13.465Z,1008.03
2024-03-22T07:23:13.465Z,1008.10
2024-03-22T07:24:13.444Z,1008.12
2024-03-22T07:25:13.431Z,1008.13
2024-03-22T07:26:13.662Z,1008.13
2024-03-22T07:27:13.386Z,1008.11
2024-03-22T07:28:13.382Z,1008.11
2024-03-22T07:29:13.380Z,1008.02
2024-03-22T07:30:13.424Z,1008.00
2024-03-22T07:31:13.427Z,1007.99
2024-03-22T07:32:13.359Z,1007.90
2024-03-22T07:33:13.335Z,1007.94
2024-03-22T07:34:13.308Z,1007.95
2024-03-22T07:35:13.350Z,1007.98
2024-03-22T07:36:13.357Z,1007.99
2024-03-22T07:37:17.581Z,1007.99
2024-03-22T07:38:14.283Z,1007.95
2024-03-22T07:39:13.279Z,1008.04
2024-03-22T07:40:13.255Z,1007.90
2024-03-22T07:41:13.241Z,1008.07
2024-03-22T07:42:13.240Z,1008.01
2024-03-22T07:43:13.227Z,1008.04
2024-03-22T07:44:13.210Z,1008.01
2024-03-22T07:45:13.195Z,1007.86
2024-03-22T07:46:13.236Z,1007.93
2024-03-22T07:47:13.183Z,1007.93
2024-03-22T07:48:13.166Z,1007.90
2024-03-22T07:49:13.149Z,1007.96
2024-03-22T07:50:13.144Z,1007.96
2024-03-22T07:51:13.144Z,1007.92
2024-03-22T07:52:13.165Z,1007.91
2024-03-22T07:53:13.134Z,1007.87
2024-03-22T07:54:13.112Z,1007.83
2024-03-22T07:55:13.122Z,1007.85
2024-03-22T07:56:13.167Z,1007.84
2024-03-22T07:57:13.130Z,1007.85
2024-03-22T07:58:13.081Z,1007.85
2024-03-22T07:59:13.119Z,1007.93
2024-03-22T08:00:13.057Z,1007.89
2024-03-22T08:01:13.103Z,1007.83
2024-03-22T08:02:13.115Z,1007.91
2024-03-22T08:03:13.044Z,1007.94
2024-03-22T08:04:13.050Z,1007.86
2024-03-22T08:05:13.054Z,1007.84
2024-03-22T08:06:12.972Z,1007.94
2024-03-22T08:07:12.978Z,1007.88
2024-03-22T08:08:13.032Z,1007.85
2024-03-22T08:09:12.957Z,1007.86
2024-03-22T08:10:12.929Z,1007.89
2024-03-22T08:11:12.933Z,1007.99
2024-03-22T08:12:13.170Z,1007.90
2024-03-22T08:13:12.947Z,1007.85
2024-03-22T08:14:13.632Z,1007.93
2024-03-22T08:15:12.977Z,1007.89
2024-03-22T08:16:12.988Z,1007.97
2024-03-22T08:17:12.978Z,1007.75
2024-03-22T08:18:12.847Z,1007.84
2024-03-22T08:19:12.886Z,1007.81
2024-03-22T08:20:12.820Z,1007.78
2024-03-22T08:21:12.832Z,1007.74
2024-03-22T08:22:12.794Z,1007.73
2024-03-22T08:23:12.804Z,1007.79
2024-03-22T08:24:12.784Z,1007.79
2024-03-22T08:25:12.778Z,1007.77
2024-03-22T08:26:12.777Z,1007.67
2024-03-22T08:27:12.772Z,1007.74
2024-03-22T08:28:17.461Z,1007.59
2024-03-22T08:29:13.733Z,1007.70
2024-03-22T08:30:12.738Z,1007.62
2024-03-22T08:31:12.722Z,1007.83
2024-03-22T08:32:12.721Z,1007.73
2024-03-22T08:33:14.476Z,1007.69
2024-03-22T08:34:12.692Z,1007.75
2024-03-22T08:35:12.740Z,1007.59
2024-03-22T08:36:12.685Z,1007.61
2024-03-22T08:37:12.735Z,1007.66
2024-03-22T08:38:12.626Z,1007.68
2024-03-22T08:39:12.627Z,1007.70
2024-03-22T08:40:12.611Z,1007.64
2024-03-22T08:41:12.646Z,1007.75
2024-03-22T08:42:12.612Z,1007.73
2024-03-22T08:43:12.615Z,1007.57
2024-03-22T08:44:12.627Z,1007.66
2024-03-22T08:45:12.575Z,1007.62
2024-03-22T08:46:12.542Z,1007.60
2024-03-22T08:47:12.544Z,1007.59
2024-03-22T08:48:12.530Z,1007.61
2024-03-22T08:49:13.200Z,1007.56
2024-03-22T08:50:12.503Z,1007.50
2024-03-22T08:51:12.775Z,1007.54
2024-03-22T08:52:12.499Z,1007.69
2024-03-22T08:53:12.471Z,1007.49
2024-03-22T08:54:12.531Z,1007.41
2024-03-22T08:55:12.473Z,1007.42
2024-03-22T08:56:12.446Z,1007.35
2024-03-22T08:57:12.456Z,1007.43
2024-03-22T08:58:12.424Z,1007.44
2024-03-22T08:59:12.465Z,1007.48
2024-03-22T09:00:12.403Z,1007.45
2024-03-22T09:01:12.390Z,1007.40
2024-03-22T09:02:12.428Z,1007.46
2024-03-22T09:03:12.380Z,1007.43
2024-03-22T09:04:12.358Z,1007.37
2024-03-22T09:05:12.354Z,1007.40
2024-03-22T09:06:12.345Z,1007.37
2024-03-22T09:07:12.381Z,1007.32
2024-03-22T09:08:12.368Z,1007.36
2024-03-22T09:09:13.236Z,1007.34
2024-03-22T09:10:12.291Z,1007.38
2024-03-22T09:11:12.275Z,1007.36
2024-03-22T09:12:12.262Z,1007.61
2024-03-22T09:13:12.338Z,1007.24
2024-03-22T09:14:12.308Z,1007.44
2024-03-22T09:15:12.239Z,1007.41
2024-03-22T09:16:12.279Z,1007.31
2024-03-22T09:17:12.217Z,1007.32
2024-03-22T09:18:12.202Z,1007.20
2024-03-22T09:19:12.239Z,1007.25
2024-03-22T09:20:12.203Z,1007.31
2024-03-22T09:21:12.180Z,1007.16
2024-03-22T09:22:12.163Z,1007.07
2024-03-22T09:23:12.158Z,1007.09
2024-03-22T09:24:12.136Z,1006.99
2024-03-22T09:25:12.166Z,1007.07
2024-03-22T09:26:12.118Z,1007.10
2024-03-22T09:27:12.112Z,1007.05
2024-03-22T09:28:12.098Z,1007.11
2024-03-22T09:29:12.088Z,1007.10
2024-03-22T09:30:12.111Z,1007.07
2024-03-22T09:31:12.061Z,1007.07
2024-03-22T09:32:12.114Z,1006.99
2024-03-22T09:33:12.043Z,1007.08
2024-03-22T09:34:12.031Z,1006.94
2024-03-22T09:35:12.022Z,1006.97
2024-03-22T09:36:12.003Z,1006.94
2024-03-22T09:37:12.002Z,1006.94
2024-03-22T09:38:12.016Z,1007.03
2024-03-22T09:39:11.967Z,1007.03
2024-03-22T09:40:12.035Z,1007.02
2024-03-22T09:41:12.891Z,1007.01
2024-03-22T09:42:11.939Z,1007.00
2024-03-22T09:43:12.917Z,1007.07
2024-03-22T09:44:11.928Z,1007.05
2024-03-22T09:45:12.899Z,1006.95
2024-03-22T09:46:11.882Z,1006.92
2024-03-22T09:47:11.883Z,1006.98
2024-03-22T09:48:11.929Z,1006.99
2024-03-22T09:49:12.824Z,1006.99
2024-03-22T09:50:11.845Z,1006.95
2024-03-22T09:51:12.788Z,1006.98
2024-03-22T09:52:12.784Z,1007.05
2024-03-22T09:53:11.914Z,1007.02
2024-03-22T09:54:11.791Z,1007.07
2024-03-22T09:55:12.783Z,1006.97
2024-03-22T09:56:12.781Z,1006.92
2024-03-22T09:57:11.763Z,1006.94
2024-03-22T09:58:11.775Z,1006.93
2024-03-22T09:59:12.715Z,1006.92
2024-03-22T10:00:12.711Z,1006.87
2024-03-22T10:01:11.782Z,1006.92
2024-03-22T10:02:11.711Z,1006.79
2024-03-22T10:03:11.717Z,1006.84
2024-03-22T10:04:11.716Z,1006.95
2024-03-22T10:05:11.685Z,1006.90
2024-03-22T10:06:11.677Z,1006.85
2024-03-22T10:07:11.657Z,1006.85
2024-03-22T10:08:11.633Z,1006.89
2024-03-22T10:09:11.668Z,1006.89
2024-03-22T10:10:14.584Z,1006.85
2024-03-22T10:11:11.629Z,1006.81
2024-03-22T10:12:11.638Z,1006.90
2024-03-22T10:13:11.667Z,1006.88
2024-03-22T10:14:15.594Z,1006.71
2024-03-22T10:15:14.185Z,1006.72
2024-03-22T10:16:11.578Z,1006.78
2024-03-22T10:17:11.569Z,1006.71
2024-03-22T10:18:11.540Z,1006.71
2024-03-22T10:19:11.542Z,1006.75
2024-03-22T10:20:11.519Z,1006.74
2024-03-22T10:21:11.531Z,1006.65
2024-03-22T10:22:11.512Z,1006.72
2024-03-22T10:23:11.503Z,1006.68
2024-03-22T10:24:11.470Z,1006.76
2024-03-22T10:25:11.487Z,1006.65
2024-03-22T10:26:11.510Z,1006.75
2024-03-22T10:27:11.492Z,1006.72
2024-03-22T10:28:13.404Z,1006.78
2024-03-22T10:29:11.488Z,1006.72
2024-03-22T10:30:11.450Z,1006.65
2024-03-22T10:31:11.411Z,1006.76
2024-03-22T10:32:11.418Z,1006.73
2024-03-22T10:33:11.486Z,1006.53
2024-03-22T10:34:11.469Z,1006.67
2024-03-22T10:35:11.442Z,1006.66
2024-03-22T10:36:11.365Z,1006.65
2024-03-22T10:37:11.501Z,1006.56
2024-03-22T10:38:11.366Z,1006.68
2024-03-22T10:39:11.371Z,1006.58
2024-03-22T10:40:11.425Z,1006.57
2024-03-22T10:41:11.397Z,1006.51
2024-03-22T10:42:11.376Z,1006.55
2024-03-22T10:43:11.296Z,1006.58
2024-03-22T10:44:11.350Z,1006.57
2024-03-22T10:45:11.266Z,1006.59
2024-03-22T10:46:11.325Z,1006.63
2024-03-22T10:47:11.235Z,1006.50
2024-03-22T10:48:11.265Z,1006.56
2024-03-22T10:49:11.212Z,1006.58
2024-03-22T10:50:11.345Z,1006.49
2024-03-22T10:51:11.209Z,1006.49
2024-03-22T10:52:11.246Z,1006.59
2024-03-22T10:53:11.303Z,1006.61
2024-03-22T10:54:11.165Z,1006.60
2024-03-22T10:55:11.304Z,1006.60
2024-03-22T10:56:11.164Z,1006.54
2024-03-22T10:57:11.118Z,1006.62
2024-03-22T10:58:11.174Z,1006.59
2024-03-22T10:59:11.104Z,1006.57
2024-03-22T11:00:11.097Z,1006.59
2024-03-22T11:01:11.087Z,1006.71
2024-03-22T11:02:11.100Z,1006.52
2024-03-22T11:03:11.074Z,1006.63
2024-03-22T11:04:11.051Z,1006.55
2024-03-22T11:05:11.046Z,1006.59
2024-03-22T11:06:11.032Z,1006.58
2024-03-22T11:07:11.039Z,1006.54
2024-03-22T11:08:11.063Z,1006.63
2024-03-22T11:09:11.008Z,1006.65
2024-03-22T11:10:11.002Z,1006.60
2024-03-22T11:11:11.007Z,1006.60
2024-03-22T11:12:10.966Z,1006.49
2024-03-22T11:13:10.964Z,1006.53
2024-03-22T11:14:10.968Z,1006.46
2024-03-22T11:15:10.941Z,1006.44
2024-03-22T11:16:10.915Z,1006.49
2024-03-22T11:17:10.925Z,1006.59
2024-03-22T11:18:10.909Z,1006.51
2024-03-22T11:19:10.918Z,1006.57
2024-03-22T11:20:10.921Z,1006.52
2024-03-22T11:21:10.845Z,1006.52
2024-03-22T11:22:10.856Z,1006.47
2024-03-22T11:23:10.845Z,1006.43
2024-03-22T11:24:10.836Z,1006.53
2024-03-22T11:25:11.208Z,1006.99
2024-03-22T11:26:10.840Z,1006.52
2024-03-22T11:27:10.810Z,1006.40
2024-03-22T11:28:12.875Z,1006.54
2024-03-22T11:29:10.769Z,1006.44
2024-03-22T11:30:10.778Z,1006.65
2024-03-22T11:31:10.746Z,1006.54
2024-03-22T11:32:10.745Z,1006.65
2024-03-22T11:33:10.750Z,1006.51
2024-03-22T11:34:10.737Z,1006.57
2024-03-22T11:35:10.734Z,1006.76
2024-03-22T11:36:10.707Z,1006.64
2024-03-22T11:37:10.690Z,1006.62
2024-03-22T11:38:10.699Z,1006.52
2024-03-22T11:39:10.647Z,1006.48
2024-03-22T11:40:10.658Z,1006.50
2024-03-22T11:41:10.672Z,1006.63
2024-03-22T11:42:10.659Z,1006.44
2024-03-22T11:43:10.622Z,1006.76
2024-03-22T11:44:10.623Z,1006.60
2024-03-22T11:45:10.614Z,1006.75
2024-03-22T11:46:10.601Z,1006.70
2024-03-22T11:47:10.582Z,1006.60
2024-03-22T11:48:10.574Z,1006.62
2024-03-22T11:49:10.559Z,1006.61
2024-03-22T11:50:10.560Z,1006.60
2024-03-22T11:51:10.553Z,1006.57
2024-03-22T11:52:10.526Z,1006.63
2024-03-22T11:53:10.545Z,1006.55
2024-03-22T11:54:10.525Z,1006.53
2024-03-22T11:55:10.498Z,1006.48
2024-03-22T11:56:11.470Z,1006.82
2024-03-22T11:57:10.513Z,1006.60
2024-03-22T11:58:11.430Z,1006.42
2024-03-22T11:59:10.469Z,1006.80
2024-03-22T12:00:19.219Z,1006.61
2024-03-22T12:01:27.993Z,1006.69
2024-03-22T12:02:11.424Z,1006.69
2024-03-22T12:03:10.404Z,1006.50
2024-03-22T12:04:10.447Z,1006.65
2024-03-22T12:05:10.387Z,1006.47